createdAt,value
2024-02-12T05:46:58.892Z,98083.16
2024-02-12T05:49:30.345Z,98084.23
2024-02-12T05:51:58.291Z,98093.67
2024-02-12T05:54:25.144Z,98093.99
2024-02-12T05:56:52.799Z,98097.61
2024-02-12T05:59:19.870Z,98096.04
2024-02-12T06:01:46.762Z,98102.22
2024-02-12T06:04:13.942Z,98106.10
2024-02-12T06:06:44.432Z,98110.08
2024-02-12T06:09:11.787Z,98107.63
2024-02-12T06:11:39.029Z,98109.52
2024-02-12T06:14:06.162Z,98113.39
2024-02-12T06:16:33.187Z,98112.95
2024-02-12T06:19:02.837Z,98121.75
2024-02-12T06:21:29.948Z,98112.98
2024-02-12T06:23:57.003Z,98117.56
2024-02-12T06:26:25.632Z,98120.46
2024-02-12T06:28:53.642Z,98115.78
2024-02-12T06:31:20.694Z,98118.59
2024-02-12T06:33:47.870Z,98125.87
2024-02-12T06:36:15.015Z,98123.48
2024-02-12T06:38:42.001Z,98122.83
2024-02-12T06:41:09.841Z,98120.24
2024-02-12T06:43:37.361Z,98128.95
2024-02-12T06:46:04.321Z,98125.23
2024-02-12T06:48:31.300Z,98130.52
2024-02-12T06:51:01.599Z,98127.61
2024-02-12T06:53:30.258Z,98129.66
2024-02-12T06:55:57.686Z,98130.44
2024-02-12T06:58:24.706Z,98129.66
2024-02-12T07:00:55.685Z,98128.35
2024-02-12T07:03:23.137Z,98127.77
2024-02-12T07:05:50.543Z,98132.51
2024-02-12T07:08:21.034Z,98135.80
2024-02-12T07:10:48.203Z,98139.27
2024-02-12T07:13:15.105Z,98140.33
2024-02-12T07:15:42.727Z,98142.73
2024-02-12T07:18:09.904Z,98147.59
2024-02-12T07:20:37.702Z,98143.59
2024-02-12T07:23:04.790Z,98150.04
2024-02-12T07:25:32.054Z,98150.13
2024-02-12T07:27:59.373Z,98154.65
2024-02-12T07:30:26.579Z,98151.56
2024-02-12T07:32:53.602Z,98151.32
2024-02-12T07:35:20.657Z,98158.98
2024-02-12T07:37:50.448Z,98154.45
2024-02-12T07:40:17.607Z,98161.15
2024-02-12T07:42:46.153Z,98166.70
2024-02-12T07:45:15.193Z,98168.36
2024-02-12T07:47:43.412Z,98162.86
2024-02-12T07:50:12.167Z,98172.75
2024-02-12T07:52:39.343Z,98172.73
2024-02-12T07:55:07.226Z,98177.17
2024-02-12T07:57:34.200Z,98180.77
2024-02-12T08:00:02.104Z,98182.20
2024-02-12T08:02:31.597Z,98182.22
2024-02-12T08:04:58.930Z,98180.12
2024-02-12T08:07:32.620Z,98182.84
2024-02-12T08:10:12.167Z,98187.21
2024-02-12T08:12:39.215Z,98185.56
2024-02-12T08:15:07.595Z,98190.30
2024-02-12T08:17:34.891Z,98187.98
2024-02-12T08:20:05.084Z,98190.08
2024-02-12T08:22:32.094Z,98197.64
2024-02-12T08:24:59.218Z,98198.52
2024-02-12T08:27:28.054Z,98201.36
2024-02-12T08:29:55.085Z,98201.51
2024-02-12T08:32:23.899Z,98207.92
2024-02-12T08:34:52.942Z,98206.96
2024-02-12T08:37:20.165Z,98208.10
2024-02-12T08:39:49.236Z,98211.79
2024-02-12T08:42:16.672Z,98214.08
2024-02-12T08:44:45.424Z,98216.41
2024-02-12T08:47:12.678Z,98216.87
2024-02-12T08:49:39.804Z,98221.96
2024-02-12T08:52:07.060Z,98227.58
2024-02-12T08:54:34.713Z,98225.30
2024-02-12T08:57:04.302Z,98238.20
2024-02-12T08:59:32.753Z,98237.30
2024-02-12T09:01:59.793Z,98240.31
2024-02-12T09:04:26.817Z,98242.70
2024-02-12T09:06:54.851Z,98240.32
2024-02-12T09:09:21.792Z,98240.91
2024-02-12T09:11:48.779Z,98251.69
2024-02-12T09:14:18.333Z,98246.54
2024-02-12T09:16:45.535Z,98252.11
2024-02-12T09:19:12.510Z,98254.56
2024-02-12T09:21:43.208Z,98258.15
2024-02-12T09:24:11.153Z,98260.11
2024-02-12T09:26:38.790Z,98264.61
2024-02-12T09:29:05.836Z,98261.41
2024-02-12T09:31:34.362Z,98259.71
2024-02-12T09:34:04.145Z,98265.62
2024-02-12T09:36:31.560Z,98267.23
2024-02-12T09:38:58.703Z,98269.25
2024-02-12T09:41:29.457Z,98272.24
2024-02-12T09:43:57.404Z,98274.73
2024-02-12T09:46:24.702Z,98278.16
2024-02-12T09:48:52.538Z,98281.47
2024-02-12T09:51:25.079Z,98286.81
2024-02-12T09:53:56.814Z,98277.52
2024-02-12T09:56:25.215Z,98284.39
2024-02-12T09:58:52.385Z,98288.97
2024-02-12T10:01:19.249Z,98289.02
2024-02-12T10:03:47.471Z,98293.30
2024-02-12T10:06:15.353Z,98290.98
2024-02-12T10:08:42.981Z,98295.02
2024-02-12T10:11:10.057Z,98298.06
2024-02-12T10:13:37.396Z,98298.23
2024-02-12T10:16:05.786Z,98299.58
2024-02-12T10:18:33.109Z,98299.23
2024-02-12T10:21:00.084Z,98294.34
2024-02-12T10:23:26.987Z,98297.31
2024-02-12T10:25:55.192Z,98297.59
2024-02-12T10:28:24.025Z,98298.99
2024-02-12T10:30:51.122Z,98298.17
2024-02-12T10:33:18.759Z,98296.67
2024-02-12T10:35:50.259Z,98300.52
2024-02-12T10:38:18.547Z,98298.23
2024-02-12T10:41:02.905Z,98302.48
2024-02-12T10:43:33.121Z,98301.50
2024-02-12T10:46:00.009Z,98305.02
2024-02-12T10:48:28.458Z,98307.64
2024-02-12T10:50:58.463Z,98309.55
2024-02-12T10:53:27.469Z,98307.66
2024-02-12T10:55:55.661Z,98313.83
2024-02-12T10:58:22.688Z,98317.33
2024-02-12T11:01:03.866Z,98316.55
2024-02-12T11:03:39.428Z,98314.96
2024-02-12T11:06:12.477Z,98325.02
2024-02-12T11:08:41.918Z,98325.42
2024-02-12T11:11:16.917Z,98322.66
2024-02-12T11:13:45.262Z,98323.05
2024-02-12T11:16:17.109Z,98325.17
2024-02-12T11:18:44.921Z,98327.25
2024-02-12T11:21:17.854Z,98326.15
2024-02-12T11:23:47.839Z,98329.08
2024-02-12T11:26:15.864Z,98330.70
2024-02-12T11:28:48.373Z,98329.25
2024-02-12T11:31:18.445Z,98334.59
2024-02-12T11:33:45.622Z,98332.56
2024-02-12T11:36:13.420Z,98334.30
2024-02-12T11:38:52.560Z,98337.26
2024-02-12T11:41:19.809Z,98336.21
2024-02-12T11:43:47.978Z,98334.85
2024-02-12T11:46:17.111Z,98330.09
2024-02-12T11:48:44.642Z,98329.67
2024-02-12T11:51:11.998Z,98333.77
2024-02-12T11:53:42.212Z,98339.77
2024-02-12T11:56:11.123Z,98339.05
2024-02-12T11:58:38.638Z,98340.05
2024-02-12T12:01:05.978Z,98339.19
2024-02-12T12:03:34.549Z,98345.28
2024-02-12T12:06:07.614Z,98342.55
2024-02-12T12:08:37.121Z,98347.09
2024-02-12T12:11:09.202Z,98346.62
2024-02-12T12:13:36.926Z,98347.25
2024-02-12T12:16:05.379Z,98349.23
2024-02-12T12:18:34.483Z,98348.55
2024-02-12T12:21:40.299Z,98354.30
2024-02-12T12:24:12.782Z,98355.01
2024-02-12T12:26:42.596Z,98358.18
2024-02-12T12:29:09.995Z,98355.60
2024-02-12T12:31:37.882Z,98355.10
2024-02-12T12:34:07.652Z,98357.42
2024-02-12T12:36:36.084Z,98361.64
2024-02-12T12:39:05.150Z,98361.19
2024-02-12T12:41:33.961Z,98362.05
2024-02-12T12:44:00.937Z,98361.88
2024-02-12T12:46:28.355Z,98363.61
2024-02-12T12:48:56.384Z,98369.11
2024-02-12T12:51:23.458Z,98366.46
2024-02-12T12:53:50.759Z,98366.73
2024-02-12T12:56:17.974Z,98365.55
2024-02-12T12:58:45.664Z,98372.36
2024-02-12T13:01:14.977Z,98373.36
2024-02-12T13:03:42.207Z,98376.27
2024-02-12T13:06:09.467Z,98382.20
2024-02-12T13:08:36.962Z,98382.34
2024-02-12T13:11:05.842Z,98386.67
2024-02-12T13:13:34.960Z,98388.99
2024-02-12T13:16:04.998Z,98389.23
2024-02-12T13:18:32.318Z,98381.05
2024-02-12T13:21:00.092Z,98391.21
2024-02-12T13:23:28.511Z,98386.45
2024-02-12T13:25:55.795Z,98393.85
2024-02-12T13:28:23.778Z,98391.63
2024-02-12T13:30:53.690Z,98395.56
2024-02-12T13:33:21.077Z,98394.66
2024-02-12T13:35:50.753Z,98397.88
2024-02-12T13:38:20.205Z,98394.23
2024-02-12T13:40:47.636Z,98399.35
2024-02-12T13:43:16.541Z,98399.68
2024-02-12T13:45:44.685Z,98403.59
2024-02-12T13:48:13.404Z,98409.89
2024-02-12T13:50:41.154Z,98413.04
2024-02-12T13:53:09.193Z,98416.44
2024-02-12T13:55:38.814Z,98416.45
2024-02-12T13:58:06.111Z,98420.48
2024-02-12T14:03:03.957Z,98421.60
2024-02-12T14:05:31.551Z,98421.17
2024-02-12T14:07:58.893Z,98427.00
2024-02-12T14:10:28.213Z,98424.53
2024-02-12T14:12:59.213Z,98423.81
2024-02-12T14:16:02.467Z,98426.85
2024-02-12T14:18:14.715Z,98423.67
2024-02-12T14:20:41.844Z,98430.70
2024-02-12T14:23:11.826Z,98436.33
2024-02-12T14:25:40.072Z,98438.20
2024-02-12T14:28:07.509Z,98442.37
2024-02-12T14:30:35.884Z,98445.61
2024-02-12T14:33:04.028Z,98443.28
2024-02-12T14:35:36.336Z,98446.59
2024-02-12T14:38:04.155Z,98449.80
2024-02-12T14:40:31.574Z,98449.72
2024-02-12T14:42:59.159Z,98449.32
2024-02-12T14:45:31.153Z,98454.36
2024-02-12T14:48:00.848Z,98456.79
2024-02-12T14:50:29.372Z,98461.02
2024-02-12T14:52:56.607Z,98459.88
2024-02-12T14:55:23.621Z,98462.00
2024-02-12T14:57:51.426Z,98459.91
2024-02-12T15:00:20.386Z,98460.77
2024-02-12T15:02:50.422Z,98463.52
2024-02-12T15:05:30.590Z,98468.67
2024-02-12T15:08:00.492Z,98469.06
2024-02-12T15:10:36.719Z,98472.34
2024-02-12T15:13:04.655Z,98474.62
2024-02-12T15:15:33.761Z,98483.08
2024-02-12T15:18:01.061Z,98480.45
2024-02-12T15:20:34.762Z,98489.38
2024-02-12T15:23:02.786Z,98491.39
2024-02-12T15:25:31.908Z,98495.21
2024-02-12T15:28:03.011Z,98494.44
2024-02-12T15:30:32.736Z,98502.83
2024-02-12T15:33:00.188Z,98505.08
2024-02-12T15:35:28.169Z,98505.70
2024-02-12T15:37:58.782Z,98507.90
2024-02-12T15:40:26.135Z,98512.02
2024-02-12T15:42:56.724Z,98513.16
2024-02-12T15:45:25.015Z,98519.24
2024-02-12T15:47:58.689Z,98526.04
2024-02-12T15:50:27.062Z,98531.08
2024-02-12T15:52:56.269Z,98530.80
2024-02-12T15:55:25.401Z,98534.85
2024-02-12T15:57:55.860Z,98532.75
2024-02-12T16:00:27.988Z,98537.66
2024-02-12T16:02:57.654Z,98540.33
2024-02-12T16:06:02.951Z,98546.81
2024-02-12T16:08:30.872Z,98546.81
2024-02-12T16:11:00.514Z,98551.25
2024-02-12T16:13:28.896Z,98555.08
2024-02-12T16:15:56.399Z,98561.44
2024-02-12T16:18:23.532Z,98562.83
2024-02-12T16:20:51.147Z,98566.19
2024-02-12T16:23:22.518Z,98570.52
2024-02-12T16:25:50.107Z,98569.80
2024-02-12T16:28:49.210Z,98570.61
2024-02-12T16:32:16.106Z,98573.75
2024-02-12T16:35:25.531Z,98574.36
2024-02-12T16:38:14.278Z,98577.72
2024-02-12T16:40:48.302Z,98582.83
2024-02-12T16:43:41.013Z,98587.19
2024-02-12T16:49:16.283Z,98600.59
2024-02-12T16:51:51.709Z,98605.16
2024-02-12T16:54:32.308Z,98603.30
2024-02-12T16:57:08.234Z,98610.82
2024-02-12T16:59:53.331Z,98612.20
2024-02-12T17:02:58.646Z,98613.33
2024-02-12T17:05:51.272Z,98619.88
2024-02-12T17:08:36.421Z,98617.30
2024-02-12T17:11:06.261Z,98623.38
2024-02-12T17:14:11.823Z,98621.80
2024-02-12T17:16:56.908Z,98626.15
2024-02-12T17:19:42.197Z,98631.35
2024-02-12T17:22:14.870Z,98631.54
2024-02-12T17:24:52.216Z,98636.98
2024-02-12T17:27:52.538Z,98637.84
2024-02-12T17:30:42.919Z,98644.04
2024-02-12T17:33:23.731Z,98638.17
2024-02-12T17:36:15.745Z,98642.43
2024-02-12T17:39:04.559Z,98647.94
2024-02-12T17:42:00.624Z,98658.86
2024-02-12T17:45:00.983Z,98658.91
2024-02-12T17:47:52.100Z,98661.77
2024-02-12T17:50:38.434Z,98671.74
2024-02-12T17:53:10.768Z,98674.58
2024-02-12T17:55:37.738Z,98676.43
2024-02-12T17:58:05.303Z,98681.67
2024-02-12T18:00:32.555Z,98685.64
2024-02-12T18:02:59.656Z,98684.97
2024-02-12T18:05:26.768Z,98692.17
2024-02-12T18:07:53.847Z,98696.11
2024-02-12T18:10:20.771Z,98700.77
2024-02-12T18:12:47.730Z,98702.50
2024-02-12T18:15:16.412Z,98703.88
2024-02-12T18:17:45.824Z,98712.24
2024-02-12T18:20:15.065Z,98709.98
2024-02-12T18:22:42.633Z,98711.70
2024-02-12T18:25:13.247Z,98719.95
2024-02-12T18:27:40.551Z,98716.43
2024-02-12T18:30:09.330Z,98719.52
2024-02-12T18:32:37.186Z,98726.18
2024-02-12T18:35:04.905Z,98729.58
2024-02-12T18:37:33.617Z,98731.14
2024-02-12T18:40:00.659Z,98739.83
2024-02-12T18:42:31.562Z,98738.16
2024-02-12T18:44:59.418Z,98739.20
2024-02-12T18:47:27.465Z,98744.15
2024-02-12T18:49:54.943Z,98745.61
2024-02-12T18:52:23.055Z,98751.77
2024-02-12T18:54:49.991Z,98752.45
2024-02-12T18:57:17.722Z,98758.52
2024-02-12T18:59:44.757Z,98761.82
2024-02-12T19:02:11.736Z,98765.10
2024-02-12T19:04:38.728Z,98768.71
2024-02-12T19:07:08.650Z,98764.36
2024-02-12T19:09:35.798Z,98770.81
2024-02-12T19:12:02.709Z,98776.31
2024-02-12T19:14:29.803Z,98775.02
2024-02-12T19:16:56.876Z,98777.85
2024-02-12T19:19:23.918Z,98782.43
2024-02-12T19:21:50.955Z,98784.90
2024-02-12T19:24:18.073Z,98779.44
2024-02-12T19:26:45.461Z,98784.98
2024-02-12T19:29:14.191Z,98791.63
2024-02-12T19:31:41.403Z,98792.07
2024-02-12T19:34:09.018Z,98795.88
2024-02-12T19:36:38.501Z,98799.73
2024-02-12T19:39:06.864Z,98798.62
2024-02-12T19:41:34.137Z,98799.52
2024-02-12T19:44:02.361Z,98803.35
2024-02-12T19:46:29.330Z,98801.18
2024-02-12T19:48:56.408Z,98805.02
2024-02-12T19:51:23.950Z,98805.61
2024-02-12T19:53:50.978Z,98806.84
2024-02-12T19:56:20.112Z,98809.83
2024-02-12T19:58:47.623Z,98816.38
2024-02-12T20:01:14.694Z,98816.55
2024-02-12T20:03:41.731Z,98814.52
2024-02-12T20:06:10.993Z,98814.32
2024-02-12T20:08:39.470Z,98820.31
2024-02-12T20:11:06.801Z,98822.42
2024-02-12T20:13:34.295Z,98820.20
2024-02-12T20:16:01.847Z,98820.91
2024-02-12T20:18:29.067Z,98825.68
2024-02-12T20:20:56.202Z,98823.19
2024-02-12T20:23:23.320Z,98825.46
2024-02-12T20:25:51.340Z,98830.68
2024-02-12T20:28:18.299Z,98828.55
2024-02-12T20:30:45.180Z,98829.15
2024-02-12T20:33:12.287Z,98834.09
2024-02-12T20:35:39.730Z,98831.72
2024-02-12T20:38:08.690Z,98840.20
2024-02-12T20:40:35.891Z,98841.13
2024-02-12T20:43:03.194Z,98844.55
2024-02-12T20:45:30.231Z,98847.08
2024-02-12T20:47:57.382Z,98849.70
2024-02-12T20:50:29.339Z,98856.82
2024-02-12T20:52:58.060Z,98855.60
2024-02-12T20:55:27.173Z,98862.95
2024-02-12T20:57:55.801Z,98861.93
2024-02-12T21:00:23.513Z,98865.73
2024-02-12T21:02:50.741Z,98868.38
2024-02-12T21:05:18.231Z,98868.19
2024-02-12T21:07:45.473Z,98868.23
2024-02-12T21:10:14.385Z,98866.36
2024-02-12T21:12:44.775Z,98871.42
2024-02-12T21:15:14.924Z,98875.02
2024-02-12T21:17:41.932Z,98871.33
2024-02-12T21:20:10.984Z,98876.96
2024-02-12T21:22:38.096Z,98880.33
2024-02-12T21:25:05.294Z,98880.32
2024-02-12T21:27:32.243Z,98881.05
2024-02-12T21:29:59.901Z,98884.58
2024-02-12T21:32:28.089Z,98880.61
2024-02-12T21:34:56.944Z,98887.04
2024-02-12T21:37:24.112Z,98885.29
2024-02-12T21:39:51.638Z,98886.11
2024-02-12T21:42:35.464Z,98886.05
2024-02-12T21:45:05.738Z,98895.02
2024-02-12T21:47:33.250Z,98900.26
2024-02-12T21:50:00.415Z,98901.98
2024-02-12T21:52:27.703Z,98903.17
2024-02-12T21:54:54.564Z,98911.83
2024-02-12T21:57:23.751Z,98907.08
2024-02-12T21:59:52.557Z,98912.61
2024-02-12T22:02:21.252Z,98912.36
2024-02-12T22:04:51.160Z,98911.44
2024-02-12T22:07:18.465Z,98912.80
2024-02-12T22:09:46.306Z,98916.23
2024-02-12T22:12:13.585Z,98919.88
2024-02-12T22:14:40.703Z,98921.54
2024-02-12T22:17:09.133Z,98919.45
2024-02-12T22:19:36.132Z,98926.15
2024-02-12T22:22:03.950Z,98928.31
2024-02-12T22:24:31.092Z,98930.11
2024-02-12T22:26:58.024Z,98931.41
2024-02-12T22:29:26.088Z,98935.55
2024-02-12T22:31:53.117Z,98937.42
2024-02-12T22:34:21.883Z,98942.13
2024-02-12T22:36:49.080Z,98943.38
2024-02-12T22:39:16.087Z,98946.92
2024-02-12T22:41:44.108Z,98951.14
2024-02-12T22:44:11.185Z,98953.71
2024-02-12T22:46:39.747Z,98953.80
2024-02-12T22:49:08.080Z,98955.59
2024-02-12T22:51:35.126Z,98962.74
2024-02-12T22:54:02.087Z,98963.52
2024-02-12T22:56:29.420Z,98967.17
2024-02-12T22:58:56.487Z,98969.36
2024-02-12T23:01:23.675Z,98973.55
2024-02-12T23:03:51.031Z,98971.61
2024-02-12T23:06:18.101Z,98975.57
2024-02-12T23:08:45.763Z,98977.42
2024-02-12T23:11:13.015Z,98978.14
2024-02-12T23:13:40.792Z,98981.69
2024-02-12T23:16:09.976Z,98984.09
2024-02-12T23:18:37.347Z,98983.46
2024-02-12T23:21:06.228Z,98990.98
2024-02-12T23:23:33.984Z,98987.20
2024-02-12T23:26:02.136Z,98988.38
2024-02-12T23:28:30.755Z,98987.45
2024-02-12T23:30:57.998Z,98991.04
2024-02-12T23:33:25.084Z,98991.64
2024-02-12T23:35:52.795Z,98995.45
2024-02-12T23:38:20.539Z,98992.79
2024-02-12T23:40:47.799Z,98997.66
2024-02-12T23:43:15.023Z,98996.30
2024-02-12T23:45:43.311Z,98999.67
2024-02-12T23:48:16.544Z,99002.30
2024-02-12T23:50:44.565Z,99002.73
2024-02-12T23:53:12.729Z,99005.61
2024-02-12T23:55:39.917Z,99008.14
2024-02-12T23:58:08.190Z,99007.38
